createdAt,value
2023-10-17T00:02:01.230Z,98538.88
2023-10-17T00:06:03.525Z,98548.91
2023-10-17T00:10:10.214Z,98549.84
2023-10-17T00:14:12.963Z,98548.47
2023-10-17T00:18:21.621Z,98535.34
2023-10-17T00:22:26.633Z,98532.03
2023-10-17T00:26:28.937Z,98530.13
2023-10-17T00:30:31.965Z,98540.72
2023-10-17T00:34:35.697Z,98537.75
2023-10-17T00:38:38.872Z,98533.22
2023-10-17T00:42:43.087Z,98532.47
2023-10-17T00:46:46.956Z,98538.78
2023-10-17T00:50:51.143Z,98538.69
2023-10-17T00:54:55.221Z,98537.69
2023-10-17T00:58:59.211Z,98535.50
2023-10-17T01:03:03.579Z,98538.84
2023-10-17T01:07:11.111Z,98536.94
2023-10-17T01:11:32.180Z,98531.47
2023-10-17T01:15:38.052Z,98535.66
2023-10-17T01:19:40.071Z,98530.66
2023-10-17T01:23:42.353Z,98525.50
2023-10-17T01:27:45.986Z,98518.84
2023-10-17T01:31:50.200Z,98513.41
2023-10-17T01:35:53.968Z,98503.28
2023-10-17T01:39:56.878Z,98511.41
2023-10-17T01:43:59.181Z,98499.34
2023-10-17T01:48:02.039Z,98496.41
2023-10-17T01:52:04.532Z,98502.19
2023-10-17T01:56:15.590Z,98511.31
2023-10-17T02:00:35.868Z,98519.66
2023-10-17T02:04:37.912Z,98517.75
2023-10-17T02:08:40.853Z,98503.22
2023-10-17T02:12:44.121Z,98501.03
2023-10-17T02:16:46.052Z,98504.22
2023-10-17T02:20:53.946Z,98505.34
2023-10-17T02:24:58.258Z,98501.81
2023-10-17T02:29:11.813Z,98490.81
2023-10-17T02:33:18.726Z,98507.53
2023-10-17T02:37:30.881Z,98511.25
2023-10-17T02:41:33.430Z,98513.84
2023-10-17T02:45:35.379Z,98517.47
2023-10-17T02:49:40.225Z,98508.84
2023-10-17T02:53:44.993Z,98512.03
2023-10-17T02:57:46.909Z,98512.09
2023-10-17T03:01:55.300Z,98515.59
2023-10-17T03:05:58.549Z,98512.69
2023-10-17T03:10:00.826Z,98512.84
2023-10-17T03:14:11.991Z,98508.63
2023-10-17T03:18:18.168Z,98507.03
2023-10-17T03:22:28.360Z,98503.47
2023-10-17T03:26:40.351Z,98505.66
2023-10-17T03:30:49.334Z,98507.25
2023-10-17T03:34:57.801Z,98508.78
2023-10-17T03:39:21.597Z,98504.72
2023-10-17T03:43:31.724Z,98514.13
2023-10-17T03:47:35.619Z,98516.66
2023-10-17T03:51:43.013Z,98514.63
2023-10-17T03:55:50.005Z,98523.97
2023-10-17T03:59:59.268Z,98515.69
2023-10-17T04:04:13.365Z,98510.47
2023-10-17T04:08:29.096Z,98510.88
2023-10-17T04:12:54.127Z,98502.59
2023-10-17T04:16:56.772Z,98504.59
2023-10-17T04:21:14.068Z,98502.84
2023-10-17T04:25:32.109Z,98497.75
2023-10-17T04:29:35.441Z,98494.63
2023-10-17T04:33:37.819Z,98492.91
2023-10-17T04:37:46.095Z,98491.31
2023-10-17T04:41:54.424Z,98501.31
2023-10-17T04:45:57.315Z,98510.81
2023-10-17T04:49:59.366Z,98519.00
2023-10-17T04:54:34.000Z,98525.94
2023-10-17T04:58:43.770Z,98511.38
2023-10-17T05:03:04.749Z,98523.34
2023-10-17T05:07:15.006Z,98524.81
2023-10-17T05:11:35.716Z,98524.88
2023-10-17T05:15:59.881Z,98526.19
2023-10-17T05:20:20.501Z,98533.13
2023-10-17T05:24:41.430Z,98527.59
2023-10-17T05:29:11.719Z,98531.56
2023-10-17T05:33:33.498Z,98527.47
2023-10-17T05:37:54.242Z,98529.66
2023-10-17T05:42:14.980Z,98533.03
2023-10-17T05:46:35.699Z,98531.03
2023-10-17T05:50:56.296Z,98537.00
2023-10-17T05:55:27.907Z,98544.09
2023-10-17T05:59:49.438Z,98556.50
2023-10-17T06:04:10.331Z,98568.97
2023-10-17T06:08:38.660Z,98575.16
2023-10-17T06:12:59.025Z,98581.47
2023-10-17T06:17:00.935Z,98584.72
2023-10-17T06:21:08.799Z,98587.19
2023-10-17T06:25:29.536Z,98587.41
2023-10-17T06:29:33.621Z,98592.75
2023-10-17T06:33:38.463Z,98588.47
2023-10-17T06:37:44.003Z,98596.94
2023-10-17T06:41:49.012Z,98607.66
2023-10-17T06:45:59.183Z,98609.72
2023-10-17T06:50:04.163Z,98605.94
2023-10-17T06:54:13.760Z,98612.91
2023-10-17T06:58:16.400Z,98611.22
2023-10-17T07:02:30.449Z,98624.00
2023-10-17T07:06:37.555Z,98620.34
2023-10-17T07:10:40.117Z,98617.53
2023-10-17T07:14:42.030Z,98609.13
2023-10-17T07:18:52.945Z,98618.06
2023-10-17T07:22:55.013Z,98610.75
2023-10-17T07:26:57.312Z,98606.44
2023-10-17T07:30:59.548Z,98601.72
2023-10-17T07:35:06.028Z,98604.91
2023-10-17T07:39:17.366Z,98606.28
2023-10-17T07:43:23.182Z,98607.72
2023-10-17T07:47:34.669Z,98592.69
2023-10-17T07:51:36.888Z,98599.09
2023-10-17T07:55:39.404Z,98599.09
2023-10-17T07:59:47.544Z,98594.59
2023-10-17T08:03:57.112Z,98602.88
2023-10-17T08:08:09.628Z,98608.06
2023-10-17T08:12:14.672Z,98603.47
2023-10-17T08:16:36.996Z,98612.44
2023-10-17T08:21:08.004Z,98607.84
2023-10-17T08:25:15.263Z,98604.16
2023-10-17T08:29:21.583Z,98603.84
2023-10-17T08:33:37.765Z,98599.63
2023-10-17T08:37:45.982Z,98590.03
2023-10-17T08:41:48.048Z,98594.34
2023-10-17T08:45:52.197Z,98578.66
2023-10-17T08:49:57.020Z,98576.81
2023-10-17T08:53:59.235Z,98582.75
2023-10-17T08:58:01.187Z,98588.06
2023-10-17T09:02:04.979Z,98576.41
2023-10-17T09:06:16.758Z,98565.44
2023-10-17T09:10:21.979Z,98581.00
2023-10-17T09:14:28.736Z,98584.66
2023-10-17T09:18:32.831Z,98590.25
2023-10-17T09:22:35.028Z,98591.25
2023-10-17T09:26:43.945Z,98590.38
2023-10-17T09:30:57.554Z,98596.09
2023-10-17T09:35:02.843Z,98590.59
2023-10-17T09:39:06.995Z,98584.22
2023-10-17T09:43:10.202Z,98574.13
2023-10-17T09:47:12.465Z,98579.03
2023-10-17T09:51:21.147Z,98571.88
2023-10-17T09:55:26.736Z,98566.03
2023-10-17T09:59:33.803Z,98558.88
2023-10-17T10:03:37.212Z,98568.06
2023-10-17T10:07:39.281Z,98559.50
2023-10-17T10:12:02.944Z,98562.69
2023-10-17T10:16:10.197Z,98550.59
2023-10-17T10:20:14.579Z,98540.25
2023-10-17T10:24:19.532Z,98538.78
2023-10-17T10:28:25.912Z,98542.75
2023-10-17T10:32:38.426Z,98537.94
2023-10-17T10:36:41.180Z,98543.44
2023-10-17T10:40:45.012Z,98532.56
2023-10-17T10:44:49.130Z,98528.03
2023-10-17T10:48:55.209Z,98517.19
2023-10-17T10:52:58.384Z,98521.88
2023-10-17T10:57:00.464Z,98503.16
2023-10-17T11:01:04.152Z,98508.47
2023-10-17T11:05:06.653Z,98499.31
2023-10-17T11:09:17.222Z,98489.28
2023-10-17T11:13:20.381Z,98493.81
2023-10-17T11:17:27.897Z,98485.16
2023-10-17T11:21:30.090Z,98472.34
2023-10-17T11:25:33.095Z,98468.41
2023-10-17T11:29:36.612Z,98467.00
2023-10-17T11:33:46.990Z,98459.78
2023-10-17T11:38:06.289Z,98456.09
2023-10-17T11:42:10.318Z,98445.28
2023-10-17T11:46:15.396Z,98442.00
2023-10-17T11:50:31.770Z,98433.41
2023-10-17T11:54:35.672Z,98439.44
2023-10-17T11:58:38.222Z,98437.69
2023-10-17T12:02:43.808Z,98433.97
2023-10-17T12:06:49.010Z,98427.44
2023-10-17T12:10:51.519Z,98426.53
2023-10-17T12:14:54.480Z,98420.22
2023-10-17T12:18:57.671Z,98423.88
2023-10-17T12:23:03.554Z,98418.66
2023-10-17T12:27:08.450Z,98404.56
2023-10-17T12:31:13.771Z,98397.22
2023-10-17T12:35:17.881Z,98402.28
2023-10-17T12:39:19.874Z,98396.50
2023-10-17T12:43:24.452Z,98390.75
2023-10-17T12:47:27.330Z,98389.78
2023-10-17T12:51:29.806Z,98387.06
2023-10-17T12:55:38.118Z,98388.66
2023-10-17T12:59:42.098Z,98388.50
2023-10-17T13:03:44.416Z,98382.75
2023-10-17T13:07:46.712Z,98374.31
2023-10-17T13:11:48.914Z,98376.78
2023-10-17T13:15:51.302Z,98377.22
2023-10-17T13:19:53.432Z,98374.41
2023-10-17T13:23:58.319Z,98364.22
2023-10-17T13:28:00.272Z,98368.53
2023-10-17T13:43:49.894Z,98356.22
2023-10-17T13:47:53.386Z,98355.53
2023-10-17T13:51:55.517Z,98357.16
2023-10-17T13:55:57.646Z,98346.16
2023-10-17T14:00:01.820Z,98350.25
2023-10-17T14:04:07.662Z,98353.31
2023-10-17T14:08:10.593Z,98352.03
2023-10-17T14:12:12.694Z,98342.00
2023-10-17T14:16:14.954Z,98347.72
2023-10-17T14:20:29.634Z,98341.31
2023-10-17T14:24:51.247Z,98337.00
2023-10-17T14:28:56.065Z,98338.81
2023-10-17T14:32:59.863Z,98328.75
2023-10-17T14:37:01.928Z,98333.66
2023-10-17T14:41:10.690Z,98332.41
2023-10-17T14:45:12.789Z,98336.38
2023-10-17T14:49:14.860Z,98335.25
2023-10-17T14:53:22.234Z,98329.59
2023-10-17T14:57:27.692Z,98328.13
2023-10-17T15:01:29.866Z,98332.31
2023-10-17T15:05:32.343Z,98324.06
2023-10-17T15:09:36.989Z,98325.66
2023-10-17T15:13:39.358Z,98328.13
2023-10-17T15:17:45.479Z,98327.16
2023-10-17T15:21:47.768Z,98332.44
2023-10-17T15:25:55.885Z,98331.00
2023-10-17T15:29:58.037Z,98334.03
2023-10-17T15:34:01.033Z,98335.44
2023-10-17T15:38:03.193Z,98324.00
2023-10-17T15:42:05.971Z,98324.72
2023-10-17T15:46:13.100Z,98329.84
2023-10-17T15:50:18.643Z,98322.63
2023-10-17T15:54:20.765Z,98313.97
2023-10-17T15:58:23.652Z,98329.97
2023-10-17T16:02:25.729Z,98333.06
2023-10-17T16:06:28.140Z,98337.09
2023-10-17T16:10:30.902Z,98336.03
2023-10-17T16:14:32.929Z,98352.75
2023-10-17T16:18:35.584Z,98362.16
2023-10-17T16:22:37.704Z,98352.38
2023-10-17T16:26:40.587Z,98356.84
2023-10-17T16:30:43.253Z,98362.91
2023-10-17T16:34:46.059Z,98363.56
2023-10-17T16:38:48.921Z,98370.97
2023-10-17T16:42:51.999Z,98366.22
2023-10-17T16:46:54.165Z,98371.28
2023-10-17T16:50:56.824Z,98371.28
2023-10-17T16:54:59.149Z,98371.28
2023-10-17T16:59:01.449Z,98369.56
2023-10-17T17:03:03.910Z,98375.59
2023-10-17T17:07:06.621Z,98373.84
2023-10-17T17:11:08.753Z,98383.94
2023-10-17T17:15:13.291Z,98387.91
2023-10-17T17:19:19.393Z,98398.66
2023-10-17T17:23:22.830Z,98388.50
2023-10-17T17:27:27.800Z,98403.69
2023-10-17T17:31:30.597Z,98402.25
2023-10-17T17:35:32.720Z,98408.75
2023-10-17T17:39:34.879Z,98408.53
2023-10-17T17:43:37.115Z,98407.34
2023-10-17T17:47:42.619Z,98410.66
2023-10-17T17:51:44.842Z,98420.47
2023-10-17T17:55:50.178Z,98417.31
2023-10-17T17:59:52.614Z,98413.84
2023-10-17T18:04:00.592Z,98413.66
2023-10-17T18:08:08.483Z,98420.63
2023-10-17T18:12:11.098Z,98417.63
2023-10-17T18:16:15.379Z,98417.47
2023-10-17T18:20:17.744Z,98420.31
2023-10-17T18:24:19.782Z,98421.34
2023-10-17T18:28:22.779Z,98421.66
2023-10-17T18:32:25.429Z,98414.66
2023-10-17T18:36:29.339Z,98414.47
2023-10-17T18:40:32.534Z,98415.44
2023-10-17T18:44:35.626Z,98428.75
2023-10-17T18:48:38.636Z,98425.13
2023-10-17T18:52:40.925Z,98417.03
2023-10-17T18:56:43.076Z,98426.84
2023-10-17T19:00:47.130Z,98433.63
2023-10-17T19:04:54.790Z,98421.16
2023-10-17T19:08:57.041Z,98426.84
2023-10-17T19:12:59.191Z,98432.50
2023-10-17T19:17:02.301Z,98428.38
2023-10-17T19:21:05.630Z,98426.81
2023-10-17T19:25:07.851Z,98425.34
2023-10-17T19:29:09.972Z,98408.31
2023-10-17T19:33:12.543Z,98417.28
2023-10-17T19:37:16.112Z,98419.97
2023-10-17T19:41:18.229Z,98426.84
2023-10-17T19:45:21.254Z,98422.72
2023-10-17T19:49:23.669Z,98440.47
2023-10-17T19:53:28.113Z,98446.88
2023-10-17T19:57:30.206Z,98448.00
2023-10-17T20:01:32.801Z,98447.03
2023-10-17T20:05:35.459Z,98444.75
2023-10-17T20:09:38.861Z,98454.09
2023-10-17T20:13:41.063Z,98448.38
2023-10-17T20:17:43.347Z,98449.16
2023-10-17T20:21:45.853Z,98456.63
2023-10-17T20:25:57.831Z,98446.81
2023-10-17T20:30:02.415Z,98449.03
2023-10-17T20:34:08.294Z,98453.13
2023-10-17T20:38:11.328Z,98448.16
2023-10-17T20:42:13.698Z,98451.78
2023-10-17T20:46:16.402Z,98447.50
2023-10-17T20:50:21.286Z,98445.91
2023-10-17T20:54:23.884Z,98448.41
2023-10-17T20:58:26.218Z,98451.63
2023-10-17T21:02:30.541Z,98446.09
2023-10-17T21:06:32.759Z,98443.22
2023-10-17T21:10:38.646Z,98444.63
2023-10-17T21:14:41.125Z,98447.19
2023-10-17T21:18:43.228Z,98448.25
2023-10-17T21:22:45.238Z,98448.78
2023-10-17T21:26:48.740Z,98440.72
2023-10-17T21:30:50.872Z,98451.38
2023-10-17T21:34:52.867Z,98446.78
2023-10-17T21:38:55.076Z,98448.94
2023-10-17T21:42:57.099Z,98436.00
2023-10-17T21:46:59.215Z,98437.28
2023-10-17T21:51:09.867Z,98429.69
2023-10-17T21:55:14.842Z,98420.66
2023-10-17T21:59:16.964Z,98426.03
2023-10-17T22:03:22.253Z,98426.78
2023-10-17T22:07:25.297Z,98427.25
2023-10-17T22:11:27.839Z,98426.09
2023-10-17T22:15:29.859Z,98426.63
2023-10-17T22:19:35.491Z,98425.19
2023-10-17T22:23:37.959Z,98433.13
2023-10-17T22:27:39.940Z,98426.47
2023-10-17T22:31:42.001Z,98422.28
2023-10-17T22:35:44.070Z,98427.34
2023-10-17T22:39:46.095Z,98429.09
2023-10-17T22:43:48.144Z,98431.56
2023-10-17T22:47:51.454Z,98430.81
2023-10-17T22:51:53.638Z,98434.00
2023-10-17T22:55:56.342Z,98436.19
2023-10-17T22:59:58.681Z,98439.50
2023-10-17T23:04:00.805Z,98435.34
2023-10-17T23:08:04.367Z,98436.75
2023-10-17T23:12:07.844Z,98425.44
2023-10-17T23:16:10.147Z,98421.34
2023-10-17T23:20:16.618Z,98426.41
2023-10-17T23:24:18.653Z,98431.69
2023-10-17T23:28:21.398Z,98429.91
2023-10-17T23:32:27.215Z,98425.00
2023-10-17T23:36:29.292Z,98425.88
2023-10-17T23:40:32.122Z,98422.97
2023-10-17T23:44:34.504Z,98420.50
2023-10-17T23:48:36.574Z,98418.19
2023-10-17T23:52:41.219Z,98428.94
2023-10-17T23:56:43.364Z,98425.16
